Time;durP1;ratioP1;P1;durP2;ratioP2;P2;SDS_P1;SDS_P2;PMS_P1;PMS_P2;Temp;Humidity;BMP_temperature;BMP_pressure;BME280_temperature;BME280_humidity;BME280_pressure;Samples;Min_cycle;Max_cycle;Signal;HPM_P1;HPM_P2
2022/01/10 00:00:00;;;;;;;52.40;33.65;;;;;;;;;;6276872;22;20059;-75
2022/01/10 00:02:27;;;;;;;49.67;33.90;;;;;;;;;;6276623;22;20021;-75
2022/01/10 00:04:53;;;;;;;45.60;30.17;;;;;;;;;;6276711;22;20004;-75
2022/01/10 00:07:19;;;;;;;44.42;34.20;;;;;;;;;;6249316;22;20396;-77
2022/01/10 00:09:46;;;;;;;41.28;27.85;;;;;;;;;;6278597;22;20063;-76
2022/01/10 00:12:12;;;;;;;65.70;43.25;;;;;;;;;;6278556;22;20023;-76
2022/01/10 00:14:38;;;;;;;39.88;26.80;;;;;;;;;;6278998;22;20003;-76
2022/01/10 00:17:05;;;;;;;44.80;29.48;;;;;;;;;;6279099;22;20331;-76
2022/01/10 00:19:31;;;;;;;38.47;24.58;;;;;;;;;;6279044;22;19999;-75
2022/01/10 00:21:59;;;;;;;42.10;27.92;;;;;;;;;;6278498;22;19996;-76
2022/01/10 00:24:26;;;;;;;42.30;27.83;;;;;;;;;;6278392;22;20408;-76
2022/01/10 00:26:52;;;;;;;34.35;24.08;;;;;;;;;;6278245;22;19996;-75
2022/01/10 00:29:18;;;;;;;37.15;26.60;;;;;;;;;;6278335;22;20074;-75
2022/01/10 00:31:44;;;;;;;35.75;25.75;;;;;;;;;;6278437;22;20030;-76
2022/01/10 00:34:10;;;;;;;40.40;27.77;;;;;;;;;;6278335;22;20027;-76
2022/01/10 00:36:36;;;;;;;38.35;25.08;;;;;;;;;;6251353;22;20382;-75
2022/01/10 00:39:03;;;;;;;43.13;27.83;;;;;;;;;;6278223;22;20057;-75
2022/01/10 00:41:29;;;;;;;36.47;26.05;;;;;;;;;;6278189;22;20331;-75
2022/01/10 00:43:56;;;;;;;36.13;24.02;;;;;;;;;;6278599;22;20500;-75
2022/01/10 00:46:22;;;;;;;36.08;26.77;;;;;;;;;;6279503;22;20004;-75
2022/01/10 00:48:48;;;;;;;35.38;25.27;;;;;;;;;;6278740;22;20004;-75
2022/01/10 00:51:15;;;;;;;41.80;28.48;;;;;;;;;;6278236;22;20061;-75
2022/01/10 00:53:44;;;;;;;34.22;23.55;;;;;;;;;;6278223;22;20066;-76
2022/01/10 00:56:13;;;;;;;33.58;24.48;;;;;;;;;;6278204;22;19995;-75
2022/01/10 00:58:39;;;;;;;34.58;24.90;;;;;;;;;;6278236;22;20063;-75
2022/01/10 01:01:08;;;;;;;38.38;26.27;;;;;;;;;;6278068;22;19996;-75
2022/01/10 01:03:34;;;;;;;40.85;26.13;;;;;;;;;;6278043;22;20038;-75
2022/01/10 01:06:00;;;;;;;39.30;25.50;;;;;;;;;;6277952;22;20003;-75
2022/01/10 01:08:29;;;;;;;38.38;26.02;;;;;;;;;;6250887;22;20327;-75
2022/01/10 01:14:07;;;;;;;34.22;24.67;;;;;;;;;;6278175;22;20018;-75
2022/01/10 01:19:27;;;;;;;41.22;27.27;;;;;;;;;;6288038;22;20078;-75
2022/01/10 01:27:21;;;;;;;39.70;27.85;;;;;;;;;;6277853;22;20073;-76
2022/01/10 01:29:47;;;;;;;38.53;26.70;;;;;;;;;;6277825;22;19996;-75
2022/01/10 01:32:14;;;;;;;38.47;26.60;;;;;;;;;;6277758;22;19992;-75
2022/01/10 01:34:40;;;;;;;36.03;27.35;;;;;;;;;;6277963;22;20063;-76
2022/01/10 01:37:11;;;;;;;40.13;28.75;;;;;;;;;;6277783;22;20053;-76
2022/01/10 01:39:37;;;;;;;40.15;27.10;;;;;;;;;;6250373;22;20000;-74
2022/01/10 01:42:28;;;;;;;38.92;28.25;;;;;;;;;;6277750;22;20003;-74
2022/01/10 01:44:51;;;;;;;39.13;26.98;;;;;;;;;;6277061;22;20008;-74
2022/01/10 01:47:20;;;;;;;41.20;29.30;;;;;;;;;;6277585;22;20004;-73
2022/01/10 01:49:46;;;;;;;42.75;29.52;;;;;;;;;;6277635;22;20105;-74
2022/01/10 01:52:12;;;;;;;38.63;27.63;;;;;;;;;;6277579;22;20003;-74
2022/01/10 01:54:38;;;;;;;32.83;22.63;;;;;;;;;;6277698;22;20019;-74
2022/01/10 01:57:05;;;;;;;32.53;23.33;;;;;;;;;;6277536;22;20000;-73
2022/01/10 01:59:31;;;;;;;33.33;25.13;;;;;;;;;;6277560;22;20007;-74
2022/01/10 02:01:57;;;;;;;31.38;23.48;;;;;;;;;;6277459;22;20019;-74
2022/01/10 02:04:23;;;;;;;29.55;22.90;;;;;;;;;;6277447;22;20324;-74
2022/01/10 02:06:52;;;;;;;25.40;18.60;;;;;;;;;;6277629;22;20000;-74
2022/01/10 02:09:18;;;;;;;27.02;21.48;;;;;;;;;;6277595;22;20027;-74
2022/01/10 02:11:45;;;;;;;24.98;19.77;;;;;;;;;;6277464;22;20003;-74
2022/01/10 02:14:11;;;;;;;24.38;16.77;;;;;;;;;;6277462;22;20079;-74
2022/01/10 02:19:22;;;;;;;;;;;;;;;;;;6278116;22;20493;-74
2022/01/10 02:21:48;;;;;;;18.60;14.32;;;;;;;;;;6277404;22;19900;-75
2022/01/10 02:24:14;;;;;;;16.25;13.85;;;;;;;;;;6277275;22;20067;-73
2022/01/10 02:26:40;;;;;;;16.50;12.70;;;;;;;;;;6277407;22;19999;-75
2022/01/10 02:29:07;;;;;;;14.25;11.85;;;;;;;;;;6277227;22;20007;-75
2022/01/10 02:31:37;;;;;;;13.20;10.95;;;;;;;;;;6249719;22;20004;-74
2022/01/10 02:34:04;;;;;;;13.73;10.50;;;;;;;;;;6277190;22;20071;-75
2022/01/10 02:36:30;;;;;;;14.25;11.65;;;;;;;;;;6277318;22;20073;-74
2022/01/10 02:38:58;;;;;;;13.30;10.43;;;;;;;;;;6277174;22;19996;-74
2022/01/10 02:41:28;;;;;;;13.13;10.75;;;;;;;;;;6276985;22;20015;-75
2022/01/10 02:43:55;;;;;;;13.57;10.20;;;;;;;;;;6277396;22;20103;-74
2022/01/10 02:46:22;;;;;;;15.70;12.15;;;;;;;;;;6277276;22;20007;-74
2022/01/10 02:48:48;;;;;;;12.13;9.40;;;;;;;;;;6277106;22;20000;-74
2022/01/10 02:51:14;;;;;;;14.07;9.55;;;;;;;;;;6275771;22;20049;-74
2022/01/10 02:53:43;;;;;;;11.60;9.27;;;;;;;;;;6277093;22;20004;-74
2022/01/10 02:56:12;;;;;;;13.77;10.07;;;;;;;;;;6274278;22;20432;-75
2022/01/10 02:58:41;;;;;;;15.48;9.27;;;;;;;;;;6276994;22;20006;-75
2022/01/10 03:01:10;;;;;;;11.35;9.35;;;;;;;;;;6273897;22;20000;-76
2022/01/10 03:03:41;;;;;;;11.20;9.45;;;;;;;;;;6276964;22;20003;-76
2022/01/10 03:06:10;;;;;;;11.68;9.45;;;;;;;;;;6276930;22;20814;-75
2022/01/10 03:08:43;;;;;;;11.65;9.13;;;;;;;;;;6270611;22;20000;-74
2022/01/10 03:11:09;;;;;;;11.23;9.10;;;;;;;;;;6275589;22;20002;-74
2022/01/10 03:13:58;;;;;;;13.48;10.77;;;;;;;;;;6277329;22;20007;-77
2022/01/10 03:16:24;;;;;;;12.48;9.15;;;;;;;;;;6276372;22;20004;-75
2022/01/10 03:18:52;;;;;;;13.95;9.82;;;;;;;;;;6277075;22;20014;-76
2022/01/10 03:21:28;;;;;;;13.32;9.27;;;;;;;;;;6276874;22;20010;-73
2022/01/10 03:23:54;;;;;;;11.07;9.50;;;;;;;;;;6276928;22;20327;-75
2022/01/10 03:26:20;;;;;;;12.68;9.50;;;;;;;;;;6276859;22;20000;-75
2022/01/10 03:28:47;;;;;;;12.95;9.43;;;;;;;;;;6276823;22;20007;-74
2022/01/10 03:31:16;;;;;;;12.23;9.13;;;;;;;;;;6276942;22;20058;-78
2022/01/10 03:33:46;;;;;;;12.73;10.38;;;;;;;;;;6276723;22;20004;-76
2022/01/10 03:36:16;;;;;;;11.95;8.85;;;;;;;;;;6276745;22;20015;-75
2022/01/10 03:38:42;;;;;;;12.13;9.15;;;;;;;;;;6276794;22;20029;-74
2022/01/10 03:41:09;;;;;;;10.73;8.93;;;;;;;;;;6276343;22;20018;-76
2022/01/10 03:43:35;;;;;;;11.27;9.07;;;;;;;;;;6278170;22;20011;-75
2022/01/10 03:46:03;;;;;;;12.43;9.40;;;;;;;;;;6278543;22;20000;-74
2022/01/10 03:48:30;;;;;;;11.13;8.70;;;;;;;;;;6278592;22;20443;-75
2022/01/10 03:50:59;;;;;;;11.25;8.82;;;;;;;;;;6278937;22;20010;-74
2022/01/10 03:53:26;;;;;;;10.00;8.13;;;;;;;;;;6278818;22;20312;-74
2022/01/10 03:55:52;;;;;;;9.40;6.85;;;;;;;;;;6278695;22;20011;-74
2022/01/10 03:58:18;;;;;;;10.70;7.90;;;;;;;;;;6279067;22;20324;-74
2022/01/10 04:00:44;;;;;;;14.13;8.23;;;;;;;;;;6278679;22;20030;-75
2022/01/10 04:03:10;;;;;;;9.18;7.22;;;;;;;;;;6278411;22;20003;-75
2022/01/10 04:05:38;;;;;;;7.55;6.80;;;;;;;;;;6278509;22;20067;-76
2022/01/10 04:08:04;;;;;;;8.18;6.65;;;;;;;;;;6278381;22;20446;-75
2022/01/10 04:10:31;;;;;;;8.88;7.00;;;;;;;;;;6278394;22;20038;-75
2022/01/10 04:12:57;;;;;;;8.57;6.68;;;;;;;;;;6278493;22;19996;-75
2022/01/10 04:15:24;;;;;;;6.88;5.53;;;;;;;;;;6278325;22;20007;-75
2022/01/10 04:18:02;;;;;;;6.00;5.13;;;;;;;;;;6278305;22;20004;-76
2022/01/10 04:20:30;;;;;;;7.45;5.80;;;;;;;;;;6271727;22;20347;-75
2022/01/10 04:22:56;;;;;;;6.95;5.28;;;;;;;;;;6274974;22;20069;-74
2022/01/10 04:25:23;;;;;;;6.82;4.88;;;;;;;;;;6278435;22;20037;-75
2022/01/10 04:27:49;;;;;;;5.80;4.53;;;;;;;;;;6278339;22;20057;-75
2022/01/10 04:30:15;;;;;;;5.30;4.28;;;;;;;;;;6272175;22;20012;-75
2022/01/10 04:32:43;;;;;;;5.70;4.50;;;;;;;;;;6271256;22;20322;-75
2022/01/10 04:35:09;;;;;;;4.95;4.00;;;;;;;;;;6278082;22;20004;-76
2022/01/10 04:37:36;;;;;;;7.40;5.35;;;;;;;;;;6278894;22;19999;-78
2022/01/10 04:40:02;;;;;;;4.90;4.22;;;;;;;;;;6278050;22;20012;-75
2022/01/10 04:42:28;;;;;;;4.95;4.10;;;;;;;;;;6278489;22;19995;-80
2022/01/10 04:44:54;;;;;;;4.90;4.30;;;;;;;;;;6279390;22;20003;-79
2022/01/10 04:47:23;;;;;;;5.15;4.65;;;;;;;;;;6278558;22;20000;-79
2022/01/10 04:52:38;;;;;;;5.13;4.50;;;;;;;;;;6278993;22;20414;-80
2022/01/10 04:55:10;;;;;;;5.85;4.70;;;;;;;;;;6277710;22;20000;-81
2022/01/10 04:57:38;;;;;;;5.82;4.90;;;;;;;;;;6278102;22;20423;-81
2022/01/10 05:00:06;;;;;;;5.10;4.55;;;;;;;;;;6278839;22;20003;-79
2022/01/10 05:02:34;;;;;;;4.72;4.07;;;;;;;;;;6271529;22;20080;-78
2022/01/10 05:05:00;;;;;;;4.45;4.05;;;;;;;;;;6275117;22;20362;-77
2022/01/10 05:07:26;;;;;;;5.03;4.13;;;;;;;;;;6277985;22;19996;-81
2022/01/10 05:09:52;;;;;;;6.15;5.05;;;;;;;;;;6278568;22;19995;-80
2022/01/10 05:12:21;;;;;;;4.53;4.07;;;;;;;;;;6278077;22;20008;-80
2022/01/10 05:14:47;;;;;;;4.93;4.43;;;;;;;;;;6278345;22;20002;-79
2022/01/10 05:23:24;;;;;;;;;;;;;;;;;;;;;
2022/01/10 05:26:19;;;;;;;4.95;4.45;;;;;;;;;;6277893;22;20070;-81
2022/01/10 05:28:59;;;;;;;;;;;;;;;;;;;;;
2022/01/10 05:35:08;;;;;;;;;;;;;;;;;;;;;
2022/01/10 05:41:02;;;;;;;;;;;;;;;;;;;;;
2022/01/10 05:43:31;;;;;;;5.43;4.43;;;;;;;;;;6265527;22;20383;-80
2022/01/10 05:52:25;;;;;;;4.35;3.78;;;;;;;;;;6154300;23;20049;-78
2022/01/10 06:01:11;;;;;;;;;;;;;;;;;;;;;
2022/01/10 06:03:58;;;;;;;4.20;3.65;;;;;;;;;;6150363;23;20080;-79
2022/01/10 06:06:55;;;;;;;6.18;4.50;;;;;;;;;;6124686;23;20089;-80
2022/01/10 06:09:50;;;;;;;5.28;3.65;;;;;;;;;;6184105;23;20017;-79
2022/01/10 06:12:37;;;;;;;;;;;;;;;;;;6184740;23;20009;-79
2022/01/10 06:18:33;;;;;;;5.80;5.07;;;;;;;;;;6050249;23;20019;-82
2022/01/10 06:21:32;;;;;;;;;;;;;;;;;;;;;
2022/01/10 06:24:22;;;;;;;4.30;3.53;;;;;;;;;;6066287;23;20074;-81
2022/01/10 06:27:15;;;;;;;5.18;3.78;;;;;;;;;;6066296;23;20441;-76
2022/01/10 06:29:55;;;;;;;5.95;4.57;;;;;;;;;;6066157;23;20015;-81
2022/01/10 06:36:11;;;;;;;;;;;;;;;;;;;;;
2022/01/10 06:41:33;;;;;;;4.65;4.25;;;;;;;;;;6144521;22;20347;-78
2022/01/10 06:44:13;;;;;;;5.25;4.75;;;;;;;;;;6274598;22;20493;-80
2022/01/10 06:47:03;;;;;;;4.60;4.10;;;;;;;;;;6274173;22;20050;-78
2022/01/10 06:49:56;;;;;;;;;;;;;;;;;;;;;
2022/01/10 06:52:28;;;;;;;5.10;4.70;;;;;;;;;;6274525;22;20091;-79
2022/01/10 06:55:12;;;;;;;;;;;;;;;;;;;;;
2022/01/10 06:58:16;;;;;;;4.95;4.38;;;;;;;;;;6274215;22;20079;-79
2022/01/10 07:01:02;;;;;;;;;;;;;;;;;;;;;
2022/01/10 07:06:37;;;;;;;4.70;3.50;;;;;;;;;;6273867;22;20526;-80
2022/01/10 07:09:13;;;;;;;;;;;;;;;;;;;;;
2022/01/10 07:11:45;;;;;;;4.53;3.85;;;;;;;;;;6273683;22;20103;-78
2022/01/10 07:14:16;;;;;;;5.35;4.47;;;;;;;;;;6273574;22;20004;-78
2022/01/10 07:22:29;;;;;;;7.85;7.03;;;;;;;;;;6135531;23;20037;-79
2022/01/10 07:28:12;;;;;;;5.05;4.55;;;;;;;;;;6146433;23;20101;-81
2022/01/10 07:31:08;;;;;;;;;;;;;;;;;;;;;
2022/01/10 07:33:54;;;;;;;4.95;3.95;;;;;;;;;;6116771;23;20390;-83
2022/01/10 07:39:21;;;;;;;8.23;5.18;;;;;;;;;;6204319;22;20400;-78
2022/01/10 07:42:21;;;;;;;;;;;;;;;;;;;;;
2022/01/10 07:44:52;;;;;;;6.55;5.70;;;;;;;;;;6273109;22;20396;-76
2022/01/10 07:47:28;;;;;;;5.28;4.53;;;;;;;;;;6273522;22;20014;-76
2022/01/10 07:53:05;;;;;;;7.82;6.35;;;;;;;;;;6251674;22;20087;-78
2022/01/10 07:55:34;;;;;;;7.68;6.82;;;;;;;;;;6272894;22;20019;-78
2022/01/10 07:58:03;;;;;;;6.80;5.22;;;;;;;;;;6274051;22;20327;-76
2022/01/10 08:03:36;;;;;;;5.30;4.60;;;;;;;;;;6266869;22;20046;-77
2022/01/10 08:06:32;;;;;;;7.75;5.28;;;;;;;;;;6272818;22;20123;-76
2022/01/10 08:14:53;;;;;;;6.00;5.32;;;;;;;;;;6239375;22;20004;-65
2022/01/10 08:17:19;;;;;;;5.22;4.72;;;;;;;;;;6273515;22;20026;-80
2022/01/10 08:19:45;;;;;;;6.30;5.70;;;;;;;;;;6273374;22;20442;-80
2022/01/10 08:22:11;;;;;;;5.72;4.22;;;;;;;;;;6272961;22;20023;-81
2022/01/10 08:24:38;;;;;;;6.07;4.22;;;;;;;;;;6273667;22;20007;-78
2022/01/10 08:27:07;;;;;;;6.90;5.38;;;;;;;;;;6271514;22;20408;-81
2022/01/10 08:29:36;;;;;;;6.07;5.47;;;;;;;;;;6274361;22;20008;-83
2022/01/10 08:32:02;;;;;;;7.47;5.95;;;;;;;;;;6275408;22;20491;-80
2022/01/10 08:34:31;;;;;;;8.05;6.57;;;;;;;;;;6275278;22;19999;-80
2022/01/10 08:37:00;;;;;;;5.63;5.10;;;;;;;;;;6272933;22;20022;-78
2022/01/10 08:39:26;;;;;;;6.90;5.78;;;;;;;;;;6248664;22;19996;-80
2022/01/10 08:42:22;;;;;;;;;;;;;;;;;;;;;
2022/01/10 08:48:05;;;;;;;10.85;7.93;;;;;;;;;;6151075;23;20480;-79
2022/01/10 08:56:14;;;;;;;7.82;6.97;;;;;;;;;;6131261;23;20006;-78
2022/01/10 09:01:47;;;;;;;;;;;;;;;;;;;;;
2022/01/10 09:07:37;;;;;;;8.55;7.65;;;;;;;;;;6212413;22;20020;-79
2022/01/10 09:13:07;;;;;;;8.18;7.38;;;;;;;;;;6152974;23;20377;-77
2022/01/10 09:16:06;;;;;;;;;;;;;;;;;;;;;
2022/01/10 09:24:46;;;;;;;;;;;;;;;;;;;;;
2022/01/10 09:33:23;;;;;;;9.18;6.97;;;;;;;;;;6034553;23;20045;-79
2022/01/10 09:38:50;;;;;;;9.85;8.60;;;;;;;;;;5978604;24;20107;-81
2022/01/10 09:48:01;;;;;;;7.93;6.35;;;;;;;;;;6000839;23;20026;-79
2022/01/10 09:50:47;;;;;;;12.90;9.43;;;;;;;;;;6033074;23;20402;-78
2022/01/10 09:53:45;;;;;;;;;;;;;;;;;;;;;
2022/01/10 09:56:01;;;;;;;8.75;7.38;;;;;;;;;;6091056;23;20002;-77
2022/01/10 09:58:34;;;;;;;9.88;7.95;;;;;;;;;;6237963;22;20056;-79
2022/01/10 10:04:03;;;;;;;;;;;;;;;;;;;;;
2022/01/10 10:06:59;;;;;;;11.13;9.30;;;;;;;;;;6256906;22;20079;-82
2022/01/10 10:09:27;;;;;;;11.20;9.10;;;;;;;;;;6267163;22;20066;-70
2022/01/10 10:12:04;;;;;;;15.15;12.00;;;;;;;;;;6274139;22;19995;-77
2022/01/10 10:14:30;;;;;;;10.43;8.68;;;;;;;;;;6273768;22;20573;-69
2022/01/10 10:17:16;;;;;;;;;;;;;;;;;;;;;
2022/01/10 10:19:51;;;;;;;9.38;6.65;;;;;;;;;;6274481;22;20008;-80
2022/01/10 10:22:33;;;;;;;;;;;;;;;;;;;;;
2022/01/10 10:25:34;;;;;;;15.45;11.48;;;;;;;;;;6238354;22;20757;-80
2022/01/10 10:28:23;;;;;;;10.70;8.95;;;;;;;;;;6271871;22;20011;-79
2022/01/10 10:34:27;;;;;;;11.82;9.82;;;;;;;;;;6210022;22;20022;-81
2022/01/10 10:37:08;;;;;;;15.73;11.85;;;;;;;;;;6186832;22;20008;-80
2022/01/10 10:40:14;;;;;;;;;;;;;;;;;;;;;
2022/01/10 10:49:14;;;;;;;;;;;;;;;;;;;;;
2022/01/10 10:52:02;;;;;;;;;;;;;;;;;;;;;
2022/01/10 10:55:01;;;;;;;;;;;;;;;;;;;;;
2022/01/10 10:58:06;;;;;;;;;;;;;;;;;;;;;
2022/01/10 11:00:42;;;;;;;11.23;8.90;;;;;;;;;;6135128;23;20076;-79
2022/01/10 11:06:48;;;;;;;;;;;;;;;;;;;;;
2022/01/10 11:09:40;;;;;;;14.25;11.63;;;;;;;;;;6261105;22;20086;-80
2022/01/10 11:12:17;;;;;;;13.65;10.68;;;;;;;;;;6274457;22;20480;-78
2022/01/10 11:15:00;;;;;;;;;;;;;;;;;;;;;
2022/01/10 11:17:27;;;;;;;12.48;10.20;;;;;;;;;;6274337;22;20075;-78
2022/01/10 11:20:14;;;;;;;17.38;14.30;;;;;;;;;;6246443;22;20008;-81
2022/01/10 11:22:47;;;;;;;12.65;10.88;;;;;;;;;;6273707;22;20000;-80
2022/01/10 11:25:21;;;;;;;14.10;11.07;;;;;;;;;;6273869;22;20004;-79
2022/01/10 11:27:48;;;;;;;11.50;10.30;;;;;;;;;;6273340;22;20078;-78
2022/01/10 11:30:32;;;;;;;17.08;13.57;;;;;;;;;;6271353;22;20016;-76
2022/01/10 11:33:10;;;;;;;17.48;15.02;;;;;;;;;;6273688;22;20071;-79
2022/01/10 11:35:41;;;;;;;13.85;10.73;;;;;;;;;;6274218;22;20000;-79
2022/01/10 11:38:17;;;;;;;13.25;11.13;;;;;;;;;;6272735;22;20042;-80
2022/01/10 11:40:44;;;;;;;12.70;9.23;;;;;;;;;;6273418;22;20015;-79
2022/01/10 11:43:26;;;;;;;9.80;7.43;;;;;;;;;;6273450;22;20412;-78
2022/01/10 11:46:05;;;;;;;10.75;9.63;;;;;;;;;;6273833;22;20007;-79
2022/01/10 11:48:42;;;;;;;13.27;11.88;;;;;;;;;;6266930;22;20016;-76
2022/01/10 11:51:18;;;;;;;13.85;10.82;;;;;;;;;;6272087;22;20709;-78
2022/01/10 11:54:03;;;;;;;11.32;10.00;;;;;;;;;;6246727;22;20039;-78
2022/01/10 11:56:29;;;;;;;;;;;;;;;;;;6274484;22;20308;-81
2022/01/10 11:59:08;;;;;;;11.98;9.50;;;;;;;;;;6273453;22;20257;-80
2022/01/10 12:01:35;;;;;;;11.15;8.55;;;;;;;;;;6273673;22;20000;-78
2022/01/10 12:04:02;;;;;;;12.32;10.15;;;;;;;;;;6274874;22;20000;-79
2022/01/10 12:06:31;;;;;;;12.95;10.15;;;;;;;;;;6275623;22;20018;-79
2022/01/10 12:08:58;;;;;;;14.60;12.43;;;;;;;;;;6275368;22;20004;-79
2022/01/10 12:11:25;;;;;;;9.88;7.90;;;;;;;;;;6274954;22;20065;-78
2022/01/10 12:13:55;;;;;;;12.20;10.27;;;;;;;;;;6269150;22;20079;-80
2022/01/10 12:16:22;;;;;;;15.00;11.55;;;;;;;;;;6275373;22;20000;-80
2022/01/10 12:18:49;;;;;;;8.52;7.63;;;;;;;;;;6275901;22;20004;-81
2022/01/10 12:21:15;;;;;;;16.95;13.02;;;;;;;;;;6274403;22;20003;-80
2022/01/10 12:23:42;;;;;;;12.18;10.57;;;;;;;;;;6274669;22;20053;-78
2022/01/10 12:26:08;;;;;;;11.52;10.02;;;;;;;;;;6247670;22;20037;-77
2022/01/10 12:28:35;;;;;;;16.25;12.90;;;;;;;;;;6274596;22;20011;-80
2022/01/10 12:31:02;;;;;;;12.13;9.00;;;;;;;;;;6275236;22;19996;-81
2022/01/10 12:33:29;;;;;;;13.25;10.88;;;;;;;;;;6273864;22;20735;-80
2022/01/10 12:36:16;;;;;;;9.82;8.43;;;;;;;;;;6274488;22;20003;-80
2022/01/10 12:38:43;;;;;;;19.90;16.08;;;;;;;;;;6268607;22;19996;-78
2022/01/10 12:41:09;;;;;;;11.90;10.52;;;;;;;;;;6273784;22;20047;-82
2022/01/10 12:43:35;;;;;;;14.80;11.52;;;;;;;;;;6275386;22;20002;-78
2022/01/10 12:46:01;;;;;;;13.07;10.07;;;;;;;;;;6274669;22;20079;-80
2022/01/10 12:48:28;;;;;;;12.70;9.93;;;;;;;;;;6247409;22;20454;-79
2022/01/10 12:50:56;;;;;;;13.82;10.05;;;;;;;;;;6268315;22;20012;-79
2022/01/10 12:53:35;;;;;;;11.00;8.88;;;;;;;;;;6274582;22;20000;-79
2022/01/10 12:56:01;;;;;;;11.75;9.30;;;;;;;;;;6270934;22;20009;-79
2022/01/10 12:58:27;;;;;;;13.70;10.68;;;;;;;;;;6275825;22;20007;-78
2022/01/10 13:00:55;;;;;;;13.57;10.48;;;;;;;;;;6276729;22;20034;-80
2022/01/10 13:03:22;;;;;;;11.57;9.77;;;;;;;;;;6247928;22;20023;-81
2022/01/10 13:05:50;;;;;;;12.88;9.25;;;;;;;;;;6275542;22;20006;-79
2022/01/10 13:08:23;;;;;;;10.90;8.80;;;;;;;;;;6276150;22;20014;-78
2022/01/10 13:10:52;;;;;;;12.50;10.33;;;;;;;;;;6276368;22;20057;-79
2022/01/10 13:13:23;;;;;;;13.38;10.48;;;;;;;;;;6275689;22;20003;-79
2022/01/10 13:15:49;;;;;;;11.63;9.02;;;;;;;;;;6276017;22;20424;-79
2022/01/10 13:18:17;;;;;;;15.40;12.18;;;;;;;;;;6276329;22;20028;-80
2022/01/10 13:20:44;;;;;;;13.48;10.77;;;;;;;;;;6275914;22;20007;-80
2022/01/10 13:23:11;;;;;;;11.18;8.00;;;;;;;;;;6275775;22;20424;-81
2022/01/10 13:25:42;;;;;;;11.52;9.02;;;;;;;;;;6276383;22;20006;-81
2022/01/10 13:28:09;;;;;;;10.23;9.20;;;;;;;;;;6276154;22;20027;-80
2022/01/10 13:30:37;;;;;;;11.63;7.90;;;;;;;;;;6269573;22;20005;-80
2022/01/10 13:33:07;;;;;;;10.77;8.52;;;;;;;;;;6273706;22;20077;-81
2022/01/10 13:35:36;;;;;;;13.20;8.85;;;;;;;;;;6276248;22;20093;-78
2022/01/10 13:38:06;;;;;;;12.88;8.63;;;;;;;;;;6275324;22;20037;-79
2022/01/10 13:40:53;;;;;;;14.25;10.02;;;;;;;;;;6275370;22;20015;-79
2022/01/10 13:43:20;;;;;;;15.25;10.10;;;;;;;;;;6275495;22;20010;-80
2022/01/10 13:45:51;;;;;;;12.82;9.82;;;;;;;;;;6275252;22;20026;-80
2022/01/10 13:48:41;;;;;;;12.60;10.70;;;;;;;;;;6275984;22;20038;-81
2022/01/10 13:51:12;;;;;;;9.35;7.50;;;;;;;;;;6249572;22;20007;-79
2022/01/10 13:53:56;;;;;;;11.93;9.40;;;;;;;;;;6275667;22;20039;-78
2022/01/10 13:56:31;;;;;;;11.35;9.07;;;;;;;;;;6275146;22;20003;-79
2022/01/10 13:59:00;;;;;;;8.93;7.32;;;;;;;;;;6274633;22;20020;-72
2022/01/10 14:04:34;;;;;;;8.85;7.07;;;;;;;;;;6274955;22;20098;-71
2022/01/10 14:07:00;;;;;;;10.90;8.52;;;;;;;;;;6274567;22;20000;-80
2022/01/10 14:09:31;;;;;;;10.48;9.05;;;;;;;;;;6275384;22;20031;-80
2022/01/10 14:11:57;;;;;;;10.50;8.65;;;;;;;;;;6276754;22;20004;-81
2022/01/10 14:14:27;;;;;;;10.77;9.05;;;;;;;;;;6276006;22;20027;-84
2022/01/10 14:16:55;;;;;;;10.60;8.32;;;;;;;;;;6276135;22;20011;-82
2022/01/10 14:19:25;;;;;;;11.68;9.23;;;;;;;;;;6276299;22;20000;-79
2022/01/10 14:21:51;;;;;;;10.95;8.23;;;;;;;;;;6276170;22;20360;-79
2022/01/10 14:24:19;;;;;;;10.02;7.72;;;;;;;;;;6276458;22;20000;-80
2022/01/10 14:26:45;;;;;;;10.40;7.90;;;;;;;;;;6275751;22;20016;-81
2022/01/10 14:29:12;;;;;;;10.35;8.65;;;;;;;;;;6274019;22;20479;-86
2022/01/10 14:31:38;;;;;;;9.82;8.27;;;;;;;;;;6275913;22;20023;-80
2022/01/10 14:34:05;;;;;;;9.48;7.40;;;;;;;;;;6275956;22;19996;-80
2022/01/10 14:36:31;;;;;;;9.90;7.43;;;;;;;;;;6275922;22;20006;-80
2022/01/10 14:38:57;;;;;;;11.18;8.90;;;;;;;;;;6275827;22;20008;-81
2022/01/10 14:41:25;;;;;;;10.65;8.45;;;;;;;;;;6275901;22;20023;-80
2022/01/10 14:43:51;;;;;;;8.02;6.72;;;;;;;;;;6276051;22;20004;-82
2022/01/10 14:46:18;;;;;;;11.57;9.80;;;;;;;;;;6276209;22;20019;-78
2022/01/10 14:48:45;;;;;;;11.73;9.68;;;;;;;;;;6269428;22;20031;-79
2022/01/10 14:51:11;;;;;;;10.98;8.63;;;;;;;;;;6275211;22;20004;-79
2022/01/10 14:53:38;;;;;;;9.85;8.07;;;;;;;;;;6275581;22;19996;-81
2022/01/10 14:56:05;;;;;;;11.05;9.52;;;;;;;;;;6276065;22;20000;-81
2022/01/10 14:58:31;;;;;;;10.68;8.98;;;;;;;;;;6275739;22;20026;-82
2022/01/10 15:00:57;;;;;;;9.38;7.80;;;;;;;;;;6275599;22;20000;-83
2022/01/10 15:03:29;;;;;;;11.02;8.18;;;;;;;;;;6276155;22;20005;-79
2022/01/10 15:05:55;;;;;;;11.40;8.85;;;;;;;;;;6275628;22;20004;-78
2022/01/10 15:08:23;;;;;;;11.07;8.20;;;;;;;;;;6276021;22;20057;-81
2022/01/10 15:10:50;;;;;;;9.52;8.23;;;;;;;;;;6275908;22;20446;-80
2022/01/10 15:13:16;;;;;;;10.77;8.63;;;;;;;;;;6275967;22;20006;-80
2022/01/10 15:15:44;;;;;;;8.88;6.80;;;;;;;;;;6275704;22;20006;-81
2022/01/10 15:18:21;;;;;;;8.05;7.05;;;;;;;;;;6275792;22;20004;-83
2022/01/10 15:20:49;;;;;;;6.22;5.55;;;;;;;;;;6275462;22;19996;-81
2022/01/10 15:23:18;;;;;;;10.05;7.20;;;;;;;;;;6269200;22;20004;-80
2022/01/10 15:25:44;;;;;;;8.88;7.28;;;;;;;;;;6269200;22;20006;-80
2022/01/10 15:28:39;;;;;;;9.40;7.55;;;;;;;;;;6275599;22;20008;-80
2022/01/10 15:31:25;;;;;;;9.07;8.13;;;;;;;;;;6205384;22;20331;-80
2022/01/10 15:34:16;;;;;;;8.30;6.30;;;;;;;;;;6268859;22;20085;-79
2022/01/10 15:36:45;;;;;;;9.20;6.80;;;;;;;;;;6275291;22;20122;-83
2022/01/10 15:39:13;;;;;;;8.70;7.78;;;;;;;;;;6275623;22;20008;-80
2022/01/10 15:41:42;;;;;;;8.70;6.50;;;;;;;;;;6268868;22;20347;-80
2022/01/10 15:44:08;;;;;;;13.77;10.43;;;;;;;;;;6273874;22;20027;-79
2022/01/10 15:46:41;;;;;;;7.93;5.90;;;;;;;;;;6248192;22;20083;-81
2022/01/10 15:49:16;;;;;;;9.02;6.50;;;;;;;;;;6275567;22;20007;-80
2022/01/10 15:52:06;;;;;;;8.10;6.47;;;;;;;;;;6275549;22;20162;-80
2022/01/10 15:55:13;;;;;;;8.70;6.93;;;;;;;;;;6264086;22;20079;-82
2022/01/10 15:58:16;;;;;;;13.15;9.95;;;;;;;;;;6274791;22;20008;-80
2022/01/10 16:00:55;;;;;;;;;;;;;;;;;;;;;
2022/01/10 16:03:24;;;;;;;11.30;8.05;;;;;;;;;;6268980;22;20087;-81
2022/01/10 16:05:51;;;;;;;10.45;7.70;;;;;;;;;;6274931;22;20004;-82
2022/01/10 16:08:18;;;;;;;11.07;8.70;;;;;;;;;;6274691;22;20057;-80
2022/01/10 16:10:49;;;;;;;6.65;5.05;;;;;;;;;;6275859;22;20411;-81
2022/01/10 16:13:28;;;;;;;9.85;7.35;;;;;;;;;;6275696;22;20020;-78
2022/01/10 16:15:54;;;;;;;10.65;7.85;;;;;;;;;;6275374;22;20073;-81
2022/01/10 16:18:21;;;;;;;9.70;7.90;;;;;;;;;;6275152;22;20327;-80
2022/01/10 16:20:49;;;;;;;9.38;7.32;;;;;;;;;;6275382;22;20362;-81
2022/01/10 16:23:15;;;;;;;6.70;5.53;;;;;;;;;;6275450;22;20057;-82
2022/01/10 16:25:44;;;;;;;11.30;9.55;;;;;;;;;;6275727;22;20071;-72
2022/01/10 16:28:10;;;;;;;7.95;5.97;;;;;;;;;;6275182;22;20004;-80
2022/01/10 16:30:36;;;;;;;8.50;5.18;;;;;;;;;;6275671;22;20025;-77
2022/01/10 16:33:03;;;;;;;9.10;6.63;;;;;;;;;;6275615;22;20323;-82
2022/01/10 16:35:29;;;;;;;8.70;6.78;;;;;;;;;;6268962;22;20000;-78
2022/01/10 16:37:55;;;;;;;10.32;7.95;;;;;;;;;;6270830;22;20328;-79
2022/01/10 16:40:22;;;;;;;10.30;9.10;;;;;;;;;;6275227;22;20004;-80
2022/01/10 16:42:48;;;;;;;9.43;7.93;;;;;;;;;;6275350;22;20004;-81
2022/01/10 16:45:14;;;;;;;9.60;7.53;;;;;;;;;;6274715;22;19996;-78
2022/01/10 16:47:43;;;;;;;10.02;7.18;;;;;;;;;;6275469;22;20026;-79
2022/01/10 16:50:13;;;;;;;13.07;9.98;;;;;;;;;;6275441;22;19999;-80
2022/01/10 16:52:39;;;;;;;11.35;7.75;;;;;;;;;;6276936;22;19996;-79
2022/01/10 16:55:06;;;;;;;7.57;6.45;;;;;;;;;;6276938;22;20058;-79
2022/01/10 16:57:32;;;;;;;7.25;5.47;;;;;;;;;;6277372;22;20000;-80
2022/01/10 16:59:59;;;;;;;10.15;7.97;;;;;;;;;;6277278;22;19996;-81
2022/01/10 17:02:28;;;;;;;8.68;6.88;;;;;;;;;;6270680;22;20007;-79
2022/01/10 17:04:57;;;;;;;9.05;7.90;;;;;;;;;;6273250;22;20350;-80
2022/01/10 17:07:23;;;;;;;9.82;7.45;;;;;;;;;;6276570;22;20007;-80
2022/01/10 17:09:54;;;;;;;10.02;7.30;;;;;;;;;;6270454;22;20327;-79
2022/01/10 17:12:24;;;;;;;7.82;5.60;;;;;;;;;;6249773;22;20094;-81
2022/01/10 17:14:50;;;;;;;10.30;7.50;;;;;;;;;;6276936;22;19999;-80
2022/01/10 17:17:20;;;;;;;8.65;6.35;;;;;;;;;;6276755;22;20506;-78
2022/01/10 17:19:48;;;;;;;8.10;6.25;;;;;;;;;;6277038;22;20004;-76
2022/01/10 17:22:19;;;;;;;11.60;7.60;;;;;;;;;;6276232;22;20000;-77
2022/01/10 17:24:52;;;;;;;9.75;7.63;;;;;;;;;;6277154;22;20019;-78
2022/01/10 17:27:19;;;;;;;9.88;8.13;;;;;;;;;;6276774;22;20121;-80
2022/01/10 17:29:45;;;;;;;11.20;8.18;;;;;;;;;;6270441;22;20000;-80
2022/01/10 17:32:14;;;;;;;10.10;8.40;;;;;;;;;;6276306;22;20000;-81
2022/01/10 17:34:43;;;;;;;9.38;7.18;;;;;;;;;;6276718;22;20373;-80
2022/01/10 17:37:09;;;;;;;13.30;9.02;;;;;;;;;;6276644;22;19995;-79
2022/01/10 17:39:59;;;;;;;11.27;8.15;;;;;;;;;;6276836;22;20454;-80
2022/01/10 17:42:21;;;;;;;9.80;7.72;;;;;;;;;;6275710;22;20014;-80
2022/01/10 17:44:47;;;;;;;8.93;6.75;;;;;;;;;;6276708;22;20443;-77